Terminal Aerodrome Forecast
Issued by NWS Tampa Bay Area, FL

Home | Current Version | Previous Version | Text Only | Print | Product List | Glossary On
Versions: 1 2 3 4 5 6 7 8 9 10 11 12 13 14 15 16 17 18 19 20 21 22 23 24 25 26
000
FTUS42 KTBW 232056 AAA
TAFTPA
TAF AMD
KTPA 232056Z 2321/2418 02010KT P6SM BKN040
     FM240000 35008KT P6SM SCT030
     FM240800 01006KT 6SM BR SCT005 BKN025
     FM241400 04007KT P6SM SCT250=

USA.gov is the U.S. government's official web portal to all federal, state and local government web resources and services.